Weichang, China
Current Conditions -  °F | °C
As of 2:00 AM on Monday 22 Dec 2014 (Local Time) from ZBAA Reporting Station
Clear Clear  
Wind Chill: 19°   Ceiling: Unl
Heat Index: 19°   Visibility: 4mi
Dew Point:   Wind: 2mph
Humidity: 54%   Direction: NA
Pressure: 30.21"   Gusts: NA
Location:  41.93°N, 117.75°E
Report Text: ZBAA 211800Z VRB01MPS 6000 NSC M07/M15 Q1023 NOSIG
Loading
Personal Weather Stations






























Interactive Weather Map New forecast layout! Learn more

10-Day Weather Forecast

Advertisements
Track Severe Weather on mobile